Detalii statie AGRICHIM STEFAN CEL MARE [0000198F]

Toti senzorii

Date Temperatura solului [C]Precipitatii [mm]Voltaj baterie [mV]HC Air temperature [C]HC Relative humidity [%]Punctul de roua [C]
medieminmaxsumaultimamedieminmaxmediemediemin
2018-10-13 16:00:00 14.7 14.7 15 0 7098 19.93 19.5 20.29 0 0 0
2018-10-13 17:00:00 14.9 14.7 15.1 0 7050 18.57 17.46 19.42 0 0 0
2018-10-13 18:00:00 14.8 14.7 15.1 0 6992 15.49 13.61 17.17 0 0 0
2018-10-13 19:00:00 14.6 14.5 15 0 6962 12.92 12.15 13.51 0 0 0
2018-10-13 20:00:00 14.5 14.4 14.7 0 6874 11.38 10.94 12.1 0 0 0
2018-10-13 21:00:00 14.1 14 14.3 0 6874 10.84 10.15 11.49 0 0 0
2018-10-13 22:00:00 14 13.9 14.2 0 6864 10.76 10.22 10.96 0 0 0
2018-10-13 23:00:00 13.7 13.7 13.9 0 6844 9.58 8.82 10.62 0 0 0
2018-10-14 00:00:00 13.6 13.4 13.8 0 6826 8.06 7.77 8.67 0 0 0
2018-10-14 01:00:00 13.4 13.3 13.5 0 6806 7.58 7.47 7.83 0 0 0
2018-10-14 02:00:00 13.1 13.1 13.5 0 6816 7.48 7.33 7.74 0 0 0
2018-10-14 03:00:00 13 12.9 13.2 0 6816 7.01 6.84 7.32 0 0 0
2018-10-14 04:00:00 12.8 12.7 13 0 6806 6.75 6.46 6.99 0 0 0
2018-10-14 05:00:00 12.6 12.6 12.8 0 6796 6.24 6.11 6.44 0 0 0
2018-10-14 06:00:00 12.4 12.3 12.7 0 6796 5.95 5.68 6.22 0 0 0
2018-10-14 07:00:00 12.3 12.2 12.4 0 6786 5.71 5.38 6.17 0 0 0
2018-10-14 08:00:00 12.2 12.1 12.3 0 6806 7.54 6.37 9.18 0 0 0
2018-10-14 09:00:00 12 11.9 12.2 0 6884 11.36 9.53 12.8 0 0 0
2018-10-14 10:00:00 12 12 12.1 0 6952 14.08 13.19 14.91 0 0 0
2018-10-14 11:00:00 12.1 12 12.2 0 7254 17.04 15.41 19.04 0 0 0
2018-10-14 12:00:00 12.3 12.1 12.5 0 7186 20.22 19.27 21 0 0 0
2018-10-14 13:00:00 12.7 12.4 12.9 0 7246 21.76 21.13 22.49 0 0 0
2018-10-14 14:00:00 13.1 12.9 13.4 0 7246 22.55 22.26 22.73 0 0 0
2018-10-14 15:00:00 13.6 13.3 14 0 7148 21.91 21.35 22.44 0 0 0
2018-10-14 16:00:00 14.1 13.9 14.4 0 7060 21.02 20.57 21.35 0 0 0
2018-10-14 17:00:00 14.3 14.2 14.4 0 7020 19.66 18.86 20.4 0 0 0
2018-10-14 18:00:00 14.3 14.3 14.4 0 6972 17.14 15.53 18.6 0 0 0
2018-10-14 19:00:00 14.2 14.1 14.3 0 6942 14.18 12.89 15.24 0 0 0
2018-10-14 20:00:00 14.1 13.9 14.2 0 6874 12.26 12.04 12.76 0 0 0
2018-10-14 21:00:00 13.9 13.8 14 0 6864 11.56 10.66 12.02 0 0 0
2018-10-14 22:00:00 13.7 13.6 13.8 0 6854 10.3 10.17 10.48 0 0 0
2018-10-14 23:00:00 13.5 13.4 13.8 0 6834 10.1 9.81 10.26 0 0 0
2018-10-15 00:00:00 13.3 13.2 13.5 0 6834 10.4 10.06 10.77 0 0 0
2018-10-15 01:00:00 13.1 13.1 13.3 0 6806 9.37 9.08 9.98 0 0 0
2018-10-15 02:00:00 13.1 13 13.2 0 6786 9.01 8.61 9.2 0 0 0
2018-10-15 03:00:00 12.8 12.7 13.2 0 6806 9 8.55 9.28 0 0 0
2018-10-15 04:00:00 12.7 12.7 12.9 0 6806 8.3 6.96 8.97 0 0 0
2018-10-15 05:00:00 12.5 12.3 12.8 0 6776 6.8 6.54 6.92 0 0 0
2018-10-15 06:00:00 12.4 12.3 12.6 0 6786 6.31 5.9 6.7 0 0 0
2018-10-15 07:00:00 12.3 12.2 12.4 0 6776 6.32 6.12 6.51 0 0 0
2018-10-15 08:00:00 12.1 12.1 12.3 0 6806 7.87 6.32 10.02 0 0 0
2018-10-15 09:00:00 12 11.9 12.2 0 6854 12.3 10.47 14.05 0 0 0
2018-10-15 10:00:00 12 12 12.2 0 6942 15.46 14.18 16.47 0 0 0
2018-10-15 11:00:00 12.1 12 12.2 0 7254 18.36 16.47 21.08 0 0 0
2018-10-15 12:00:00 12.3 12.2 12.6 0 7236 21.73 21.02 22.17 0 0 0
2018-10-15 13:00:00 12.8 12.6 13 0 7254 22.68 21.48 23.97 0 0 0
2018-10-15 14:00:00 13.2 12.9 13.5 0 7246 24.3 23.96 24.64 0 0 0